Time;durP1;ratioP1;P1;durP2;ratioP2;P2;SDS_P1;SDS_P2;PMS_P1;PMS_P2;Temp;Humidity;BMP_temperature;BMP_pressure;BME280_temperature;BME280_humidity;BME280_pressure;Samples;Min_cycle;Max_cycle;Signal;HPM_P1;HPM_P2
2022/07/29 00:01:29;;;;;;;1.15;0.70;;;;;;;28.19;35.96;98879.81;5050165;28;20132;-58
2022/07/29 00:03:54;;;;;;;1.60;0.88;;;;;;;28.25;35.81;98872.44;5035656;28;20057;-58
2022/07/29 00:06:20;;;;;;;0.93;0.70;;;;;;;28.23;36.16;98891.00;5050082;28;20523;-58
2022/07/29 00:08:49;;;;;;;0.95;0.70;;;;;;;28.24;35.95;98890.56;5049781;28;20041;-58
2022/07/29 00:11:14;;;;;;;0.98;0.73;;;;;;;28.27;35.64;98876.84;5049800;28;20052;-58
2022/07/29 00:13:39;;;;;;;0.70;0.60;;;;;;;28.23;35.92;98886.16;5049981;28;20047;-58
2022/07/29 00:16:05;;;;;;;0.80;0.60;;;;;;;28.20;36.18;98895.47;5049539;28;20052;-58
2022/07/29 00:18:31;;;;;;;1.15;0.75;;;;;;;28.14;36.24;98882.38;5049700;28;20049;-58
2022/07/29 00:20:56;;;;;;;0.88;0.60;;;;;;;28.18;36.10;98883.09;5049212;28;20045;-58
2022/07/29 00:23:22;;;;;;;0.90;0.60;;;;;;;28.15;36.28;98889.59;5049249;28;20102;-58
2022/07/29 00:25:47;;;;;;;0.93;0.60;;;;;;;28.16;36.27;98889.16;5039944;28;20046;-58
2022/07/29 00:28:13;;;;;;;0.95;0.70;;;;;;;28.19;36.35;98893.09;5046578;28;20048;-57
2022/07/29 00:30:38;;;;;;;1.50;0.80;;;;;;;28.21;36.02;98890.63;5056864;28;20036;-58
2022/07/29 00:33:03;;;;;;;0.85;0.57;;;;;;;28.22;36.11;98886.63;5055735;28;20120;-58
2022/07/29 00:35:44;;;;;;;0.60;0.50;;;;;;;28.27;35.78;98893.72;5068174;28;20119;-58
2022/07/29 00:38:11;;;;;;;1.35;0.70;;;;;;;28.33;35.88;98886.38;5054168;28;20485;-58
2022/07/29 00:40:36;;;;;;;1.40;0.80;;;;;;;28.17;36.44;98896.34;5049055;28;20056;-58
2022/07/29 00:43:02;;;;;;;1.90;0.60;;;;;;;28.15;36.28;98890.38;5049107;28;20565;-58
2022/07/29 00:45:28;;;;;;;1.33;0.80;;;;;;;28.16;36.29;98886.34;5049141;28;20993;-58
2022/07/29 00:47:53;;;;;;;0.70;0.65;;;;;;;28.14;36.13;98883.16;5049260;28;20041;-58
2022/07/29 00:50:18;;;;;;;0.95;0.60;;;;;;;28.16;36.23;98888.38;5047003;28;20432;-58
2022/07/29 00:52:44;;;;;;;1.13;0.63;;;;;;;28.15;36.33;98889.59;5042541;28;20063;-58
2022/07/29 00:55:13;;;;;;;0.98;0.65;;;;;;;28.17;36.20;98890.72;5055382;28;20054;-58
2022/07/29 00:57:40;;;;;;;0.82;0.60;;;;;;;28.15;36.27;98886.78;5053077;28;20051;-58
2022/07/29 01:00:09;;;;;;;1.30;0.75;;;;;;;28.14;36.44;98883.16;5046008;28;20088;-58
2022/07/29 01:02:34;;;;;;;1.08;0.70;;;;;;;28.18;36.26;98883.09;5047495;28;20037;-58
2022/07/29 01:05:01;;;;;;;1.15;0.70;;;;;;;28.19;36.08;98885.44;5049149;28;20422;-58
2022/07/29 01:07:28;;;;;;;1.02;0.63;;;;;;;28.18;35.96;98881.06;5049091;28;20053;-58
2022/07/29 01:09:55;;;;;;;1.05;0.63;;;;;;;28.37;35.31;98878.66;5048615;28;20045;-58
2022/07/29 01:12:25;;;;;;;0.90;0.63;;;;;;;28.19;36.19;98879.81;5046870;28;20049;-57
2022/07/29 01:14:52;;;;;;;0.65;0.55;;;;;;;28.13;36.40;98881.56;5046755;28;20501;-58
2022/07/29 01:17:37;;;;;;;0.90;0.70;;;;;;;28.10;36.26;98885.28;5049204;28;20564;-58
2022/07/29 01:20:24;;;;;;;0.70;0.50;;;;;;;28.09;36.37;98889.31;5030864;28;20079;-58
2022/07/29 01:23:09;;;;;;;1.17;0.80;;;;;;;28.12;36.46;98887.63;5048425;28;20111;-58
2022/07/29 01:26:11;;;;;;;0.77;0.60;;;;;;;28.13;36.31;98878.75;5053914;28;20037;-58
2022/07/29 01:28:48;;;;;;;0.50;0.40;;;;;;;28.20;36.10;98887.03;5032858;28;20058;-58
2022/07/29 01:31:18;;;;;;;1.00;0.70;;;;;;;28.17;36.28;98884.31;5044575;28;20056;-58
2022/07/29 01:34:01;;;;;;;0.98;0.68;;;;;;;28.21;35.84;98882.19;5048923;28;20052;-58
2022/07/29 01:36:46;;;;;;;0.80;0.60;;;;;;;28.25;35.71;98894.16;5050998;28;20584;-58
2022/07/29 01:39:19;;;;;;;0.80;0.50;;;;;;;28.16;36.28;98882.75;5060882;28;20052;-58
2022/07/29 01:41:58;;;;;;;1.38;0.60;;;;;;;28.11;36.59;98886.84;5043148;28;20037;-58
2022/07/29 01:44:32;;;;;;;0.77;0.60;;;;;;;28.10;36.36;98885.28;5052164;28;20044;-58
2022/07/29 01:47:04;;;;;;;0.80;0.60;;;;;;;28.11;36.18;98884.03;5038137;28;20041;-57
2022/07/29 01:49:36;;;;;;;1.08;0.60;;;;;;;28.09;36.34;98882.91;5052373;28;20052;-58
2022/07/29 01:52:10;;;;;;;1.48;0.68;;;;;;;28.13;36.33;98880.78;5064017;28;20076;-58
2022/07/29 01:54:43;;;;;;;1.02;0.60;;;;;;;28.17;36.24;98885.09;5052279;28;20049;-58
2022/07/29 01:57:13;;;;;;;0.90;0.68;;;;;;;28.17;36.07;98878.69;5051860;28;20047;-58
2022/07/29 01:59:40;;;;;;;0.85;0.63;;;;;;;28.21;36.22;98882.97;5052234;28;20064;-58
2022/07/29 02:02:08;;;;;;;0.80;0.60;;;;;;;28.25;36.05;98880.09;5051862;28;20500;-58
2022/07/29 02:04:36;;;;;;;0.75;0.60;;;;;;;28.28;35.52;98884.84;5061462;28;20078;-58
2022/07/29 02:07:05;;;;;;;0.82;0.50;;;;;;;28.45;35.27;98885.69;5055639;28;20041;-58
2022/07/29 02:09:35;;;;;;;0.70;0.50;;;;;;;28.24;36.37;98886.97;5060056;28;20036;-58
2022/07/29 02:12:03;;;;;;;0.90;0.68;;;;;;;28.08;36.38;98887.75;5056914;28;20059;-58
2022/07/29 02:14:35;;;;;;;0.70;0.60;;;;;;;28.08;36.38;98886.94;5057285;28;20045;-58
2022/07/29 02:17:02;;;;;;;0.68;0.60;;;;;;;28.12;36.35;98890.44;5046260;28;20076;-58
2022/07/29 02:19:29;;;;;;;1.48;0.60;;;;;;;28.15;36.38;98892.41;5038840;28;20045;-58
2022/07/29 02:21:58;;;;;;;0.70;0.55;;;;;;;28.16;36.22;98888.38;5051428;28;20056;-58
2022/07/29 02:24:25;;;;;;;0.60;0.50;;;;;;;28.15;36.39;98893.19;5051843;28;20095;-58
2022/07/29 02:26:52;;;;;;;0.60;0.50;;;;;;;28.18;36.25;98891.53;5039276;28;20048;-58
2022/07/29 02:29:24;;;;;;;0.95;0.60;;;;;;;28.22;36.20;98876.16;5051719;28;20397;-58
2022/07/29 02:31:52;;;;;;;1.00;0.70;;;;;;;28.28;36.08;98876.41;5051620;28;20992;-58
2022/07/29 02:34:20;;;;;;;0.63;0.50;;;;;;;28.38;35.60;98878.19;5051342;28;20049;-58
2022/07/29 02:36:48;;;;;;;0.57;0.50;;;;;;;28.36;36.12;98874.22;5051290;28;20086;-58
2022/07/29 02:39:15;;;;;;;0.82;0.60;;;;;;;28.20;36.26;98889.06;5060661;28;20053;-58
2022/07/29 02:41:49;;;;;;;0.50;0.50;;;;;;;28.12;36.45;98888.44;5051473;28;20128;-58
2022/07/29 02:44:17;;;;;;;0.95;0.77;;;;;;;28.11;36.38;98889.66;5051200;28;20131;-58
2022/07/29 02:46:49;;;;;;;0.80;0.60;;;;;;;28.12;36.46;98880.00;5050564;28;20052;-58
2022/07/29 02:49:20;;;;;;;;;;;;;;;28.20;36.25;98886.25;5051698;28;20040;-58
2022/07/29 02:52:03;;;;;;;0.52;0.50;;;;;;;28.17;36.40;98887.91;5063675;28;19916;-58
2022/07/29 02:54:42;;;;;;;1.85;0.60;;;;;;;28.16;36.19;98880.72;5050667;28;20037;-58
2022/07/29 02:57:21;;;;;;;0.85;0.60;;;;;;;28.21;36.33;98882.97;5039609;28;20052;-57
2022/07/29 02:59:51;;;;;;;0.70;0.50;;;;;;;28.23;36.39;98894.59;5050893;28;20041;-58
2022/07/29 03:02:18;;;;;;;0.50;0.40;;;;;;;28.25;36.24;98880.88;5042646;28;20049;-58
2022/07/29 03:04:44;;;;;;;0.65;0.60;;;;;;;28.28;36.20;98882.03;5046203;28;20044;-58
2022/07/29 03:07:14;;;;;;;0.68;0.50;;;;;;;28.23;36.43;98885.38;5064217;28;20072;-58
2022/07/29 03:09:42;;;;;;;0.82;0.68;;;;;;;28.26;36.22;98887.31;5051142;28;20049;-58
2022/07/29 03:12:08;;;;;;;0.90;0.60;;;;;;;28.31;35.92;98895.25;5050709;28;20049;-58
2022/07/29 03:14:35;;;;;;;0.70;0.60;;;;;;;28.45;35.65;98900.53;5051114;28;20041;-58
2022/07/29 03:17:02;;;;;;;0.57;0.50;;;;;;;28.26;36.46;98895.75;5064248;28;20056;-58
2022/07/29 03:19:28;;;;;;;0.70;0.50;;;;;;;28.19;36.21;98899.50;5050534;28;20045;-58
2022/07/29 03:21:56;;;;;;;0.90;0.63;;;;;;;28.16;36.37;98894.78;5050566;28;20045;-58
2022/07/29 03:24:31;;;;;;;0.68;0.55;;;;;;;28.12;36.56;98910.13;5050686;28;20033;-58
2022/07/29 03:26:57;;;;;;;0.50;0.50;;;;;;;28.16;36.54;98910.84;5050901;28;20135;-58
2022/07/29 03:29:23;;;;;;;0.68;0.57;;;;;;;28.19;36.50;98904.34;5053510;28;20032;-58
2022/07/29 03:31:49;;;;;;;0.90;0.50;;;;;;;28.21;36.30;98901.88;5061397;28;20570;-58
2022/07/29 03:34:14;;;;;;;0.77;0.57;;;;;;;28.21;36.30;98901.88;5050456;28;20048;-58
2022/07/29 03:36:39;;;;;;;0.60;0.45;;;;;;;28.21;36.38;98896.25;5057598;28;20488;-58
2022/07/29 03:39:06;;;;;;;0.63;0.50;;;;;;;28.22;36.41;98909.13;5057760;28;20362;-58
2022/07/29 03:41:35;;;;;;;0.73;0.57;;;;;;;28.18;36.42;98923.25;5064246;28;20037;-58
2022/07/29 03:44:02;;;;;;;0.50;0.45;;;;;;;28.20;36.35;98934.03;5050505;28;20140;-58
2022/07/29 03:46:29;;;;;;;0.60;0.50;;;;;;;28.22;36.48;98934.41;5064162;28;20420;-58
2022/07/29 03:48:59;;;;;;;0.85;0.60;;;;;;;28.23;36.39;98936.00;5060307;28;20048;-58
2022/07/29 03:51:26;;;;;;;1.08;0.60;;;;;;;28.22;36.23;98940.84;5053554;28;20045;-58
2022/07/29 03:53:51;;;;;;;0.50;0.50;;;;;;;28.25;36.46;98941.97;5058764;28;20092;-58
2022/07/29 03:56:21;;;;;;;1.35;0.70;;;;;;;28.22;36.32;98934.41;5055260;28;20464;-58
2022/07/29 03:58:52;;;;;;;0.88;0.60;;;;;;;28.25;36.33;98942.75;5049057;28;20489;-57
2022/07/29 04:01:18;;;;;;;0.50;0.40;;;;;;;28.26;36.23;98943.56;5049990;28;20052;-58
2022/07/29 04:03:47;;;;;;;0.68;0.50;;;;;;;28.24;36.38;98943.22;5049963;28;20091;-58
2022/07/29 04:06:14;;;;;;;0.57;0.50;;;;;;;28.27;36.31;98955.59;5050189;28;20045;-58
2022/07/29 04:08:40;;;;;;;0.80;0.60;;;;;;;28.36;35.79;98953.00;5049693;28;20132;-58
2022/07/29 04:11:05;;;;;;;0.40;0.40;;;;;;;28.33;36.27;98946.22;5051332;28;20133;-58
2022/07/29 04:13:32;;;;;;;0.80;0.60;;;;;;;28.19;36.80;98958.56;5049998;28;20041;-58
2022/07/29 04:15:58;;;;;;;0.82;0.60;;;;;;;28.15;36.51;98957.09;5049948;28;20037;-58
2022/07/29 04:18:24;;;;;;;0.93;0.70;;;;;;;28.15;36.61;98963.50;5049612;28;20418;-58
2022/07/29 04:20:49;;;;;;;0.60;0.45;;;;;;;28.19;36.44;98969.03;5049712;28;20055;-58
2022/07/29 04:23:15;;;;;;;1.35;0.60;;;;;;;28.18;36.52;98961.81;5041256;28;20045;-58
2022/07/29 04:25:41;;;;;;;0.73;0.50;;;;;;;28.17;36.40;98963.84;5044196;28;20076;-58
2022/07/29 04:28:07;;;;;;;0.63;0.50;;;;;;;28.20;36.40;98959.34;5049730;28;20037;-57
2022/07/29 04:30:34;;;;;;;0.85;0.50;;;;;;;28.24;36.22;98962.91;5049767;28;20110;-57
2022/07/29 04:33:01;;;;;;;0.90;0.60;;;;;;;28.23;36.34;98969.75;5049431;28;20076;-58
2022/07/29 04:35:27;;;;;;;1.02;0.65;;;;;;;28.23;36.41;98972.56;5056728;28;20123;-58
2022/07/29 04:37:53;;;;;;;0.65;0.57;;;;;;;28.20;36.41;98970.59;5052090;28;20478;-58
2022/07/29 04:40:18;;;;;;;0.98;0.70;;;;;;;28.21;36.54;98972.19;5052236;28;20060;-58
2022/07/29 04:42:44;;;;;;;0.73;0.50;;;;;;;28.24;36.46;98976.97;5054270;28;20120;-58
2022/07/29 04:45:09;;;;;;;0.77;0.57;;;;;;;28.25;36.58;98970.88;5049425;28;20045;-58
2022/07/29 04:47:35;;;;;;;0.80;0.60;;;;;;;28.28;36.46;98974.84;5049453;28;20076;-58
2022/07/29 04:50:00;;;;;;;0.75;0.60;;;;;;;28.28;36.50;98965.59;5052653;28;20098;-58
2022/07/29 04:52:26;;;;;;;1.05;0.70;;;;;;;28.27;36.41;98972.47;5058374;28;20048;-58
2022/07/29 04:54:51;;;;;;;1.17;0.60;;;;;;;28.31;36.40;98982.44;5049167;28;20504;-58
2022/07/29 04:57:16;;;;;;;1.45;0.50;;;;;;;28.30;36.59;98978.06;5058193;28;20041;-58
2022/07/29 04:59:42;;;;;;;0.80;0.70;;;;;;;28.28;36.33;98982.47;5048867;28;20041;-58
2022/07/29 05:02:07;;;;;;;1.05;0.65;;;;;;;28.34;36.12;98978.75;5041297;28;20048;-58
2022/07/29 05:04:33;;;;;;;0.85;0.60;;;;;;;28.30;36.44;98989.31;5043248;28;20045;-58
2022/07/29 05:06:58;;;;;;;0.70;0.50;;;;;;;28.16;37.15;98989.59;5048970;28;20072;-58
2022/07/29 05:09:24;;;;;;;0.82;0.60;;;;;;;28.13;36.99;98996.88;5049221;28;20041;-58
2022/07/29 05:11:49;;;;;;;1.13;0.60;;;;;;;28.14;37.09;99003.28;5048720;28;20045;-58
2022/07/29 05:14:14;;;;;;;0.70;0.60;;;;;;;28.16;37.12;98992.41;5049104;28;20053;-58
2022/07/29 05:16:40;;;;;;;0.82;0.63;;;;;;;28.17;37.30;99008.06;5049125;28;20033;-58
2022/07/29 05:19:06;;;;;;;0.90;0.60;;;;;;;28.25;36.45;98996.19;5048666;28;20045;-58
2022/07/29 05:21:32;;;;;;;1.70;0.63;;;;;;;28.30;37.11;98992.13;5048716;28;20102;-58
2022/07/29 05:23:57;;;;;;;0.85;0.65;;;;;;;28.16;37.38;98983.97;5061499;28;20040;-57
2022/07/29 05:26:22;;;;;;;0.77;0.60;;;;;;;28.12;37.61;98969.97;5053933;28;20090;-58
2022/07/29 05:28:48;;;;;;;1.05;0.70;;;;;;;28.11;37.53;98974.03;5056626;28;20060;-57
2022/07/29 05:31:14;;;;;;;1.20;0.70;;;;;;;28.13;37.63;98987.63;5048573;28;20040;-58
2022/07/29 05:33:49;;;;;;;0.68;0.57;;;;;;;28.09;37.73;98984.13;5049006;28;20037;-58
2022/07/29 05:36:14;;;;;;;1.42;0.55;;;;;;;28.28;37.22;98994.53;5061476;28;20547;-57
2022/07/29 05:38:39;;;;;;;1.13;0.80;;;;;;;28.17;37.74;98991.97;5049148;28;20646;-57
2022/07/29 05:41:05;;;;;;;7.45;1.00;;;;;;;28.07;38.42;98997.81;5048330;28;20040;-58
2022/07/29 05:43:30;;;;;;;12.50;1.40;;;;;;;28.08;38.49;99005.03;5048591;28;20131;-59
2022/07/29 05:45:56;;;;;;;6.63;1.17;;;;;;;28.05;38.52;99001.06;5048842;28;20056;-59
2022/07/29 05:48:22;;;;;;;19.42;1.40;;;;;;;28.10;38.48;99002.59;5052570;28;20081;-59
2022/07/29 05:50:47;;;;;;;7.78;1.10;;;;;;;28.13;38.50;99012.94;5057113;28;20132;-58
2022/07/29 05:53:12;;;;;;;10.90;1.20;;;;;;;28.14;38.50;99008.91;5046073;28;20175;-59
2022/07/29 05:55:38;;;;;;;5.65;1.08;;;;;;;28.20;38.43;99012.78;5037679;28;20516;-58
2022/07/29 05:58:03;;;;;;;5.13;1.02;;;;;;;28.22;38.16;99013.16;5048414;28;20187;-58
2022/07/29 06:00:29;;;;;;;6.57;1.20;;;;;;;28.30;37.34;99009.00;5034348;28;20033;-58
2022/07/29 06:02:55;;;;;;;2.40;0.90;;;;;;;28.36;38.19;99012.06;5048612;28;20489;-58
2022/07/29 06:05:20;;;;;;;3.72;0.82;;;;;;;28.38;38.16;99013.22;5036795;28;20049;-58
2022/07/29 06:07:46;;;;;;;3.65;0.82;;;;;;;28.46;37.88;99017.47;5048294;28;20110;-58
2022/07/29 06:10:11;;;;;;;2.20;0.90;;;;;;;28.49;37.62;99027.81;5057767;28;20531;-59
2022/07/29 06:12:36;;;;;;;1.85;0.70;;;;;;;28.51;37.80;99027.41;5047844;28;20056;-58
2022/07/29 06:15:02;;;;;;;2.70;0.90;;;;;;;28.55;37.40;99030.13;5048292;28;20195;-59
2022/07/29 06:17:28;;;;;;;3.17;0.82;;;;;;;28.59;37.38;99011.16;5056880;28;20471;-58
2022/07/29 06:19:53;;;;;;;1.38;0.77;;;;;;;28.63;37.36;99023.09;5052789;28;20042;-58
2022/07/29 06:22:18;;;;;;;2.10;0.98;;;;;;;28.70;37.43;99022.94;5046379;28;20629;-58
2022/07/29 06:24:44;;;;;;;1.58;0.70;;;;;;;28.70;37.29;99028.56;5050378;28;20037;-59
2022/07/29 06:27:12;;;;;;;2.30;0.70;;;;;;;28.71;37.37;99018.88;5058177;28;20060;-58
2022/07/29 06:29:38;;;;;;;2.65;0.68;;;;;;;28.80;36.58;99024.72;5051292;28;20041;-58
2022/07/29 06:32:04;;;;;;;1.35;0.80;;;;;;;28.77;37.28;99022.75;5051269;28;20045;-58
2022/07/29 06:34:29;;;;;;;1.67;0.70;;;;;;;28.74;37.18;99018.81;5051522;28;20037;-58
2022/07/29 06:36:55;;;;;;;1.20;0.70;;;;;;;28.73;37.07;99014.41;5050859;28;20060;-58
2022/07/29 06:39:21;;;;;;;1.48;0.73;;;;;;;28.75;37.10;99011.94;5051177;28;20127;-58
2022/07/29 06:41:48;;;;;;;2.67;0.77;;;;;;;28.77;37.05;99019.94;5050788;28;20041;-58
2022/07/29 06:44:14;;;;;;;1.08;0.60;;;;;;;28.77;37.18;99029.19;5051130;28;20041;-58
2022/07/29 06:46:39;;;;;;;1.30;0.63;;;;;;;28.81;36.98;99031.13;5050687;28;20052;-58
2022/07/29 06:49:05;;;;;;;1.33;0.73;;;;;;;28.81;37.01;99029.13;5050966;28;20041;-58
2022/07/29 06:51:30;;;;;;;1.73;0.70;;;;;;;28.81;36.98;99033.94;5051096;28;20049;-58
2022/07/29 06:53:57;;;;;;;1.23;0.65;;;;;;;28.86;36.35;99034.19;5045638;28;20505;-58
2022/07/29 06:56:22;;;;;;;1.15;0.77;;;;;;;28.88;36.94;99036.59;5045691;28;20061;-58
2022/07/29 06:58:48;;;;;;;1.33;0.60;;;;;;;28.82;37.17;99041.94;5043349;28;20052;-59
2022/07/29 07:01:13;;;;;;;0.93;0.70;;;;;;;28.81;36.92;99050.84;5050470;28;20041;-58
2022/07/29 07:03:39;;;;;;;2.10;0.70;;;;;;;28.81;36.75;99043.19;5040647;28;20643;-58
2022/07/29 07:06:04;;;;;;;1.42;0.80;;;;;;;28.77;36.96;99042.47;5048161;28;20496;-58
2022/07/29 07:08:30;;;;;;;1.13;0.60;;;;;;;28.78;36.87;99046.88;5049996;28;20500;-58
2022/07/29 07:10:56;;;;;;;1.13;0.60;;;;;;;28.81;36.86;99057.25;5040548;28;20036;-59
2022/07/29 07:13:22;;;;;;;0.73;0.55;;;;;;;28.83;36.83;99056.81;5047107;28;20390;-58
2022/07/29 07:15:48;;;;;;;1.95;0.80;;;;;;;28.84;36.90;99056.38;5047827;28;20047;-58
2022/07/29 07:18:14;;;;;;;0.80;0.50;;;;;;;28.90;35.99;99051.00;5047358;28;20043;-59
2022/07/29 07:20:40;;;;;;;0.80;0.50;;;;;;;28.85;36.84;99049.50;5049148;28;20037;-58
2022/07/29 07:23:06;;;;;;;1.60;0.70;;;;;;;28.81;36.96;99056.47;5040959;28;20036;-58
2022/07/29 07:25:32;;;;;;;0.82;0.70;;;;;;;28.82;36.77;99061.66;5052105;28;20385;-59
2022/07/29 07:27:57;;;;;;;0.73;0.55;;;;;;;28.79;36.99;99060.53;5049897;28;20037;-58
2022/07/29 07:30:22;;;;;;;1.05;0.65;;;;;;;28.76;36.67;99057.78;5050455;28;20079;-58
2022/07/29 07:32:48;;;;;;;0.60;0.47;;;;;;;28.77;36.86;99065.78;5048840;28;20102;-58
2022/07/29 07:35:13;;;;;;;0.90;0.60;;;;;;;28.79;36.73;99066.16;5043234;28;20045;-59
2022/07/29 07:37:42;;;;;;;1.17;0.65;;;;;;;28.82;36.82;99067.28;5050144;28;20425;-59
2022/07/29 07:40:11;;;;;;;1.33;0.82;;;;;;;28.79;36.96;99068.16;5049881;28;20412;-58
2022/07/29 07:42:37;;;;;;;1.00;0.70;;;;;;;28.79;36.74;99068.16;5047296;28;20037;-59
2022/07/29 07:45:03;;;;;;;1.17;0.70;;;;;;;28.88;36.30;99062.72;5035505;28;20405;-58
2022/07/29 07:47:28;;;;;;;0.93;0.60;;;;;;;28.78;37.28;99066.56;5044487;28;20037;-58
2022/07/29 07:49:54;;;;;;;1.10;0.70;;;;;;;28.69;37.44;99063.56;5049989;28;20515;-58
2022/07/29 07:52:21;;;;;;;1.08;0.60;;;;;;;28.72;36.92;99055.06;5043435;28;20053;-58
2022/07/29 07:54:48;;;;;;;1.60;0.70;;;;;;;28.70;37.20;99062.34;5040391;28;20098;-58
2022/07/29 07:57:14;;;;;;;4.57;0.70;;;;;;;28.75;37.11;99064.66;5038359;28;20052;-58
2022/07/29 07:59:40;;;;;;;1.08;0.70;;;;;;;28.81;36.38;99056.47;5044957;28;20692;-58
2022/07/29 08:02:06;;;;;;;4.45;0.80;;;;;;;28.81;37.40;99062.09;5050523;28;20036;-59
2022/07/29 08:04:32;;;;;;;4.65;0.90;;;;;;;28.82;37.30;99058.06;5045795;28;20033;-58
2022/07/29 08:06:59;;;;;;;2.38;0.70;;;;;;;28.80;37.26;99055.69;5045520;28;20048;-58
2022/07/29 08:09:26;;;;;;;3.72;1.00;;;;;;;28.83;37.24;99059.63;5041392;28;20098;-58
2022/07/29 08:11:52;;;;;;;2.05;0.90;;;;;;;28.82;37.26;99066.50;5046449;28;20496;-58
2022/07/29 08:14:18;;;;;;;1.92;0.73;;;;;;;28.87;36.74;99055.50;5049002;28;20045;-58
2022/07/29 08:16:43;;;;;;;2.97;1.00;;;;;;;28.77;37.23;99067.81;5042735;28;20119;-58
2022/07/29 08:19:09;;;;;;;4.47;1.20;;;;;;;28.73;36.97;99067.91;5047704;28;20143;-58
2022/07/29 08:21:35;;;;;;;1.63;1.00;;;;;;;28.73;37.07;99069.94;5045748;28;20045;-58
2022/07/29 08:26:45;;;;;;;2.03;1.10;;;;;;;28.82;36.93;99081.38;5049461;28;20044;-58
2022/07/29 08:29:12;;;;;;;1.70;0.90;;;;;;;28.83;36.94;99082.94;5046972;28;20136;-58
2022/07/29 08:31:38;;;;;;;1.58;1.00;;;;;;;28.86;36.54;99084.88;5042714;28;20072;-59
2022/07/29 08:34:04;;;;;;;3.20;1.20;;;;;;;28.89;37.05;99095.28;5047485;28;20489;-58
2022/07/29 08:36:30;;;;;;;3.35;1.10;;;;;;;28.78;37.09;99111.59;5047595;28;20048;-58
2022/07/29 08:38:56;;;;;;;5.13;1.00;;;;;;;28.76;37.16;99131.75;5040257;28;20048;-58
2022/07/29 08:41:25;;;;;;;1.60;0.80;;;;;;;28.83;37.12;99163.78;5046946;28;20044;-58
2022/07/29 08:43:52;;;;;;;6.78;1.13;;;;;;;28.84;37.17;99194.31;5050604;28;20048;-58
2022/07/29 08:46:20;;;;;;;2.35;0.90;;;;;;;28.83;37.10;99209.63;5042481;28;20508;-57
2022/07/29 08:48:47;;;;;;;3.03;1.13;;;;;;;28.82;37.51;99222.13;5032742;28;20045;-57
2022/07/29 08:51:17;;;;;;;3.88;1.30;;;;;;;28.73;37.68;99224.75;5041336;28;20040;-57
2022/07/29 08:53:47;;;;;;;4.82;1.33;;;;;;;28.68;37.47;99254.19;5040066;28;20107;-57
2022/07/29 08:56:13;;;;;;;7.65;1.45;;;;;;;28.69;38.02;99274.66;5055350;28;20432;-58
2022/07/29 08:58:39;;;;;;;6.82;1.38;;;;;;;28.62;38.38;99280.44;5055396;28;20048;-58
2022/07/29 09:01:06;;;;;;;6.57;1.85;;;;;;;28.61;38.39;99278.84;5047332;28;20569;-58
2022/07/29 09:03:35;;;;;;;6.80;1.63;;;;;;;28.60;38.72;99289.31;5052219;28;20977;-57
2022/07/29 09:06:02;;;;;;;8.40;1.95;;;;;;;28.58;39.32;99302.25;5050976;28;20037;-57
2022/07/29 09:08:28;;;;;;;7.35;1.90;;;;;;;28.61;39.90;99318.25;5041447;28;20144;-57
2022/07/29 09:10:55;;;;;;;8.10;1.88;;;;;;;28.63;40.89;99316.59;5044166;28;20488;-56
2022/07/29 09:13:22;;;;;;;12.30;2.20;;;;;;;28.67;41.27;99328.59;5046323;28;20064;-57
2022/07/29 09:15:47;;;;;;;13.60;2.67;;;;;;;28.69;41.95;99326.13;5044303;28;20077;-57
2022/07/29 09:18:33;;;;;;;15.05;2.50;;;;;;;28.69;42.45;99336.59;5046262;28;20064;-57
2022/07/29 09:24:06;;;;;;;10.25;2.13;;;;;;;28.75;43.06;99346.94;5037453;28;20057;-57
2022/07/29 09:26:35;;;;;;;9.40;2.38;;;;;;;28.79;42.97;99353.28;5037497;28;20034;-57
2022/07/29 09:29:11;;;;;;;8.95;2.05;;;;;;;28.81;42.66;99369.75;5042695;28;20037;-58
2022/07/29 09:31:39;;;;;;;9.70;1.90;;;;;;;28.85;42.49;99378.13;5046126;28;20111;-57
2022/07/29 09:34:05;;;;;;;11.30;2.30;;;;;;;28.81;42.64;99377.41;5047058;28;20041;-57
2022/07/29 09:36:40;;;;;;;6.05;2.10;;;;;;;28.83;42.32;99375.72;5046779;28;20041;-58
2022/07/29 09:39:06;;;;;;;9.38;1.90;;;;;;;28.79;42.51;99380.63;5048913;28;20182;-57
2022/07/29 09:41:52;;;;;;;9.10;2.20;;;;;;;28.81;42.75;99385.84;5048638;28;20150;-57
2022/07/29 09:44:18;;;;;;;6.70;1.88;;;;;;;28.82;42.21;99382.59;5048487;28;20045;-57
2022/07/29 09:46:57;;;;;;;6.43;1.80;;;;;;;28.84;42.56;99379.34;5048498;28;20045;-58
2022/07/29 09:49:23;;;;;;;5.50;1.45;;;;;;;28.83;42.48;99372.13;5048756;28;20064;-57
2022/07/29 09:51:59;;;;;;;5.80;1.60;;;;;;;28.80;42.77;99376.59;5041939;28;20041;-57
2022/07/29 09:54:26;;;;;;;8.60;1.88;;;;;;;28.80;43.15;99382.25;5041037;28;20098;-58
2022/07/29 09:56:52;;;;;;;5.53;1.73;;;;;;;28.81;43.81;99381.00;5048933;28;20120;-58
2022/07/29 09:59:20;;;;;;;6.38;1.80;;;;;;;28.82;43.72;99379.78;5051408;28;20504;-58
2022/07/29 10:01:45;;;;;;;8.38;2.00;;;;;;;28.83;44.60;99375.72;5051770;28;20068;-57
2022/07/29 10:04:11;;;;;;;6.13;2.03;;;;;;;28.83;44.88;99378.56;5052034;28;20498;-58
2022/07/29 10:06:56;;;;;;;5.15;1.90;;;;;;;28.81;45.61;99378.19;5051906;28;20049;-58
2022/07/29 10:09:22;;;;;;;5.15;1.88;;;;;;;28.82;45.62;99379.78;5051800;28;20413;-57
2022/07/29 10:12:13;;;;;;;4.75;2.03;;;;;;;28.86;45.95;99380.50;5052076;28;20497;-57
2022/07/29 10:14:39;;;;;;;6.50;2.08;;;;;;;28.87;46.22;99375.69;5052123;28;20053;-58
2022/07/29 10:17:06;;;;;;;5.78;1.80;;;;;;;28.84;46.58;99374.50;5052003;28;20041;-58
2022/07/29 10:19:33;;;;;;;3.45;1.70;;;;;;;28.83;46.61;99366.50;5051802;28;20511;-61
2022/07/29 10:22:00;;;;;;;4.13;1.77;;;;;;;28.78;46.79;99364.97;5050568;28;20045;-57
2022/07/29 10:24:28;;;;;;;5.00;2.20;;;;;;;28.81;46.65;99366.94;5051282;28;20471;-58
2022/07/29 10:26:59;;;;;;;7.25;2.78;;;;;;;28.81;46.45;99364.13;5051601;28;20041;-59
2022/07/29 10:29:25;;;;;;;5.57;2.00;;;;;;;28.77;47.00;99371.81;5048293;28;20057;-58
2022/07/29 10:32:19;;;;;;;4.85;2.17;;;;;;;28.75;46.88;99369.44;5035105;28;20739;-58
2022/07/29 10:35:02;;;;;;;3.63;2.00;;;;;;;28.76;46.69;99364.59;5051619;28;20473;-58
2022/07/29 10:37:43;;;;;;;4.13;1.80;;;;;;;28.77;46.53;99366.19;5051587;28;20158;-58
2022/07/29 10:43:23;;;;;;;5.75;2.03;;;;;;;28.70;46.76;99371.94;5051702;28;20083;-58
2022/07/29 10:45:54;;;;;;;4.22;2.28;;;;;;;28.70;46.87;99377.59;5049214;28;20144;-58
2022/07/29 10:48:20;;;;;;;4.55;2.00;;;;;;;28.70;47.02;99380.41;5068100;28;20107;-58
2022/07/29 10:51:04;;;;;;;5.28;2.17;;;;;;;28.71;47.23;99390.44;5033045;28;20140;-58
2022/07/29 10:53:52;;;;;;;4.72;2.05;;;;;;;28.74;47.01;99390.38;5049553;28;20111;-58
2022/07/29 10:56:28;;;;;;;4.07;1.92;;;;;;;28.72;47.24;99386.38;5049779;28;20132;-58
2022/07/29 10:59:26;;;;;;;3.50;1.95;;;;;;;28.69;46.87;99384.44;5051309;28;20041;-58
2022/07/29 11:01:52;;;;;;;5.43;2.05;;;;;;;28.69;46.90;99387.25;5049366;28;20049;-58
2022/07/29 11:04:41;;;;;;;4.93;2.22;;;;;;;28.69;46.20;99390.06;5051097;28;20068;-58
2022/07/29 11:07:07;;;;;;;4.07;1.90;;;;;;;28.68;46.29;99394.13;5037950;28;20041;-58
2022/07/29 11:09:33;;;;;;;6.57;2.20;;;;;;;28.65;46.81;99395.78;5050965;28;20552;-58
2022/07/29 11:11:59;;;;;;;3.78;2.00;;;;;;;28.63;47.07;99394.59;5050275;28;20045;-58
2022/07/29 11:15:01;;;;;;;5.97;2.22;;;;;;;28.64;47.48;99390.56;5050968;28;20053;-58
2022/07/29 11:17:26;;;;;;;5.57;2.03;;;;;;;28.66;47.61;99394.56;5049817;28;20076;-58
2022/07/29 11:20:12;;;;;;;4.50;2.17;;;;;;;28.63;47.90;99389.75;5048587;28;20077;-58
2022/07/29 11:22:37;;;;;;;4.60;2.03;;;;;;;28.67;48.03;99384.88;5050697;28;20053;-58
2022/07/29 11:25:16;;;;;;;4.63;2.00;;;;;;;28.69;47.93;99381.63;5050896;28;20047;-58
2022/07/29 11:27:42;;;;;;;5.95;2.00;;;;;;;28.70;47.98;99383.22;5051015;28;20044;-58
2022/07/29 11:30:09;;;;;;;4.28;1.85;;;;;;;28.69;48.08;99376.00;5049559;28;20504;-58
2022/07/29 11:32:43;;;;;;;6.53;1.95;;;;;;;28.68;47.95;99380.03;5049457;28;20098;-58
2022/07/29 11:35:21;;;;;;;5.18;1.98;;;;;;;28.63;47.88;99372.09;5049111;28;20083;-58
2022/07/29 11:38:22;;;;;;;4.72;2.13;;;;;;;28.66;47.61;99369.22;5029571;28;20068;-58
2022/07/29 11:41:25;;;;;;;6.28;2.08;;;;;;;28.65;47.70;99359.19;5037608;28;20041;-58
2022/07/29 11:43:58;;;;;;;3.95;1.88;;;;;;;28.66;47.37;99349.53;5041118;28;20083;-58
2022/07/29 11:46:42;;;;;;;6.30;2.30;;;;;;;28.63;47.70;99349.56;5041925;28;20589;-65
2022/07/29 11:49:08;;;;;;;5.90;2.25;;;;;;;28.56;47.50;99352.50;5038523;28;20053;-59
2022/07/29 11:51:35;;;;;;;5.57;2.40;;;;;;;28.50;47.20;99355.03;5048853;28;20044;-58